createdAt,value
2023-03-01T00:01:58.344Z,21.90
2023-03-01T00:04:35.094Z,20.90
2023-03-01T00:07:13.806Z,21.87
2023-03-01T00:09:50.221Z,22.60
2023-03-01T00:12:26.294Z,22.13
2023-03-01T00:15:09.190Z,21.97
2023-03-01T00:17:48.592Z,20.97
2023-03-01T00:20:25.532Z,21.73
2023-03-01T00:23:04.292Z,21.30
2023-03-01T00:25:47.374Z,21.53
2023-03-01T00:28:24.023Z,22.73
2023-03-01T00:30:59.852Z,21.17
2023-03-01T00:33:37.759Z,21.57
2023-03-01T00:36:17.208Z,20.90
2023-03-01T00:39:00.024Z,22.63
2023-03-01T00:41:41.090Z,21.47
2023-03-01T00:44:18.811Z,21.23
2023-03-01T00:46:55.826Z,21.73
2023-03-01T00:49:39.889Z,21.23
2023-03-01T00:52:19.449Z,22.60
2023-03-01T00:55:01.419Z,23.33
2023-03-01T00:57:43.458Z,22.83
2023-03-01T01:00:22.563Z,21.00
2023-03-01T01:03:00.169Z,24.90
2023-03-01T01:05:42.357Z,24.70
2023-03-01T01:08:24.918Z,24.87
2023-03-01T01:11:03.794Z,23.37
2023-03-01T01:13:43.086Z,26.70
2023-03-01T01:16:19.860Z,24.60
2023-03-01T01:18:58.473Z,26.57
2023-03-01T01:21:38.923Z,24.97
2023-03-01T01:24:16.290Z,24.57
2023-03-01T01:26:57.533Z,23.53
2023-03-01T01:29:34.766Z,23.57
2023-03-01T01:32:20.079Z,23.10
2023-03-01T01:34:56.373Z,25.13
2023-03-01T01:37:35.839Z,25.90
2023-03-01T01:40:14.431Z,24.93
2023-03-01T01:42:52.567Z,25.03
2023-03-01T01:45:42.821Z,24.60
2023-03-01T01:48:22.850Z,26.37
2023-03-01T01:51:07.263Z,27.70
2023-03-01T01:53:46.046Z,24.63
2023-03-01T01:56:24.892Z,24.73
2023-03-01T01:59:05.730Z,25.67
2023-03-01T02:01:41.914Z,23.50
2023-03-01T02:04:18.323Z,24.80
2023-03-01T02:06:59.861Z,24.03
2023-03-01T02:09:37.087Z,27.00
2023-03-01T02:12:19.198Z,26.40
2023-03-01T02:14:58.442Z,25.47
2023-03-01T02:17:35.824Z,27.37
2023-03-01T02:20:29.475Z,26.50
2023-03-01T02:23:08.918Z,26.13
2023-03-01T02:25:54.457Z,24.50
2023-03-01T02:28:40.835Z,24.57
2023-03-01T02:31:37.447Z,24.87
2023-03-01T02:34:16.812Z,26.30
2023-03-01T02:36:56.174Z,26.23
2023-03-01T02:39:37.328Z,25.27
2023-03-01T02:42:18.609Z,24.93
2023-03-01T02:44:58.480Z,25.93
2023-03-01T02:47:34.872Z,27.10
2023-03-01T02:50:22.627Z,25.27
2023-03-01T02:53:08.557Z,25.20
2023-03-01T02:55:47.208Z,27.07
2023-03-01T02:58:25.942Z,26.83
2023-03-01T03:01:06.042Z,26.83
2023-03-01T03:03:42.459Z,26.47
2023-03-01T03:06:22.687Z,26.43
2023-03-01T03:09:00.499Z,26.50
2023-03-01T03:11:37.678Z,28.07
2023-03-01T03:14:19.356Z,28.30
2023-03-01T03:17:02.692Z,27.37
2023-03-01T03:19:39.282Z,27.87
2023-03-01T03:22:16.952Z,31.07
2023-03-01T03:24:56.537Z,27.53
2023-03-01T03:27:34.751Z,29.97
2023-03-01T03:30:16.322Z,30.57
2023-03-01T03:32:58.422Z,27.93
2023-03-01T03:35:36.675Z,27.47
2023-03-01T03:38:18.321Z,27.17
2023-03-01T03:40:59.035Z,27.20
2023-03-01T03:43:40.171Z,28.40
2023-03-01T03:46:21.278Z,27.17
2023-03-01T03:49:01.037Z,27.00
2023-03-01T03:51:41.975Z,26.27
2023-03-01T03:54:19.564Z,29.50
2023-03-01T03:56:58.591Z,27.80
2023-03-01T03:59:37.329Z,26.17
2023-03-01T04:02:15.175Z,25.83
2023-03-01T04:04:54.862Z,24.97
2023-03-01T04:07:39.984Z,25.73
2023-03-01T04:10:19.286Z,23.33
2023-03-01T04:13:01.904Z,21.83
2023-03-01T04:15:39.173Z,18.13
2023-03-01T04:18:28.162Z,16.23
2023-03-01T04:21:13.825Z,17.00
2023-03-01T04:23:55.180Z,17.33
2023-03-01T04:26:33.564Z,16.47
2023-03-01T04:29:15.682Z,16.80
2023-03-01T04:31:55.767Z,13.67
2023-03-01T04:34:35.871Z,13.73
2023-03-01T04:37:18.687Z,14.50
2023-03-01T04:39:55.946Z,14.97
2023-03-01T04:42:36.256Z,13.57
2023-03-01T04:45:15.741Z,12.13
2023-03-01T04:48:04.976Z,13.17
2023-03-01T04:50:42.527Z,12.57
2023-03-01T04:53:30.461Z,13.40
2023-03-01T04:56:07.972Z,12.67
2023-03-01T04:58:44.773Z,12.90
2023-03-01T05:01:24.440Z,13.37
2023-03-01T05:04:05.419Z,12.93
2023-03-01T05:06:44.421Z,13.47
2023-03-01T05:09:24.510Z,13.00
2023-03-01T05:12:02.228Z,14.20
2023-03-01T05:14:39.146Z,13.03
2023-03-01T05:17:15.727Z,12.83
2023-03-01T05:19:58.680Z,14.57
2023-03-01T05:22:35.736Z,14.10
2023-03-01T05:25:16.722Z,14.23
2023-03-01T05:28:07.438Z,13.67
2023-03-01T05:30:55.125Z,14.40
2023-03-01T05:36:30.820Z,14.97
2023-03-01T05:39:07.261Z,14.83
2023-03-01T05:41:46.137Z,15.77
2023-03-01T05:44:26.142Z,14.30
2023-03-01T05:47:07.468Z,14.90
2023-03-01T05:49:45.263Z,14.70
2023-03-01T05:52:24.928Z,14.83
2023-03-01T05:55:02.401Z,14.50
2023-03-01T05:57:41.737Z,15.67
2023-03-01T06:00:19.216Z,15.33
2023-03-01T06:02:55.819Z,15.27
2023-03-01T06:05:35.577Z,16.47
2023-03-01T06:08:18.960Z,15.83
2023-03-01T06:10:56.383Z,15.27
2023-03-01T06:13:49.020Z,16.03
2023-03-01T06:16:30.322Z,16.47
2023-03-01T06:19:07.431Z,15.73
2023-03-01T06:21:44.614Z,16.20
2023-03-01T06:24:21.884Z,16.50
2023-03-01T06:26:59.933Z,17.20
2023-03-01T06:29:42.770Z,16.53
2023-03-01T06:32:21.092Z,17.00
2023-03-01T06:34:59.195Z,16.67
2023-03-01T06:37:36.014Z,17.03
2023-03-01T06:40:16.513Z,16.30
2023-03-01T06:42:56.994Z,17.50
2023-03-01T06:45:39.719Z,18.13
2023-03-01T06:48:16.483Z,17.30
2023-03-01T06:50:56.416Z,16.30
2023-03-01T06:53:33.531Z,17.13
2023-03-01T06:56:16.211Z,17.40
2023-03-01T06:58:52.715Z,18.00
2023-03-01T07:01:36.885Z,17.33
2023-03-01T07:04:13.629Z,17.90
2023-03-01T07:06:57.666Z,17.37
2023-03-01T07:09:33.844Z,17.40
2023-03-01T07:12:19.881Z,17.10
2023-03-01T07:14:56.306Z,17.90
2023-03-01T07:17:34.879Z,18.13
2023-03-01T07:20:14.293Z,18.33
2023-03-01T07:22:53.803Z,18.50
2023-03-01T07:25:36.314Z,18.23
2023-03-01T07:28:14.349Z,19.63
2023-03-01T07:30:50.932Z,17.33
2023-03-01T07:33:29.690Z,16.93
2023-03-01T07:36:16.615Z,17.37
2023-03-01T07:38:53.130Z,16.37
2023-03-01T07:41:30.103Z,15.57
2023-03-01T07:44:08.615Z,16.37
2023-03-01T07:46:50.609Z,16.63
2023-03-01T07:49:32.963Z,16.00
2023-03-01T07:52:13.804Z,15.97
2023-03-01T07:54:51.658Z,15.97
2023-03-01T07:57:28.725Z,15.53
2023-03-01T08:00:04.758Z,15.43
2023-03-01T08:02:47.937Z,15.90
2023-03-01T08:05:28.435Z,15.10
2023-03-01T08:08:05.835Z,16.00
2023-03-01T08:10:44.186Z,15.43
2023-03-01T08:13:25.328Z,15.00
2023-03-01T08:16:06.762Z,14.90
2023-03-01T08:18:49.534Z,14.63
2023-03-01T08:21:28.387Z,15.80
2023-03-01T08:24:07.254Z,14.30
2023-03-01T08:26:46.942Z,14.60
2023-03-01T08:29:25.095Z,14.17
2023-03-01T08:32:02.685Z,14.20
2023-03-01T08:34:40.491Z,14.03
2023-03-01T08:37:20.905Z,15.00
2023-03-01T08:39:57.694Z,14.80
2023-03-01T08:42:34.573Z,14.57
2023-03-01T08:45:20.635Z,14.80
2023-03-01T08:48:01.387Z,16.93
2023-03-01T08:50:37.966Z,15.60
2023-03-01T08:53:16.924Z,15.27
2023-03-01T08:55:53.529Z,13.77
2023-03-01T08:58:30.565Z,14.20
2023-03-01T09:01:11.794Z,13.07
2023-03-01T09:03:47.926Z,13.73
2023-03-01T09:06:26.454Z,14.53
2023-03-01T09:09:10.574Z,13.90
2023-03-01T09:11:48.461Z,13.00
2023-03-01T09:14:25.989Z,14.30
2023-03-01T09:17:05.584Z,13.80
2023-03-01T09:19:42.271Z,14.17
2023-03-01T09:22:18.375Z,13.17
2023-03-01T09:24:57.129Z,14.07
2023-03-01T09:27:36.270Z,13.60
2023-03-01T09:30:14.089Z,12.37
2023-03-01T09:32:53.889Z,14.43
2023-03-01T09:35:34.981Z,14.07
2023-03-01T09:38:13.939Z,13.67
2023-03-01T09:40:53.918Z,14.30
2023-03-01T09:43:37.625Z,14.10
2023-03-01T09:46:19.659Z,16.40
2023-03-01T09:49:01.938Z,16.50
2023-03-01T09:51:44.098Z,17.27
2023-03-01T09:54:20.956Z,18.10
2023-03-01T09:57:27.440Z,20.97
2023-03-01T10:00:23.728Z,18.33
2023-03-01T10:03:11.919Z,18.73
2023-03-01T10:06:06.653Z,19.37
2023-03-01T10:08:53.859Z,19.67
2023-03-01T10:11:38.248Z,19.90
2023-03-01T10:14:31.180Z,22.23
2023-03-01T10:17:11.549Z,22.93
2023-03-01T10:19:50.802Z,22.90
2023-03-01T10:22:32.628Z,22.87
2023-03-01T10:25:10.899Z,26.23
2023-03-01T10:27:54.182Z,25.27
2023-03-01T10:30:46.454Z,25.07
2023-03-01T10:33:27.939Z,25.23
2023-03-01T10:36:05.149Z,26.70
2023-03-01T10:39:03.755Z,28.07
2023-03-01T10:41:41.690Z,27.47
2023-03-01T10:44:45.916Z,28.10
2023-03-01T10:47:28.790Z,26.90
2023-03-01T10:50:33.350Z,27.00
2023-03-01T10:53:29.124Z,27.07
2023-03-01T10:56:11.970Z,27.23
2023-03-01T10:59:04.822Z,29.63
2023-03-01T11:01:45.569Z,28.07
2023-03-01T11:04:27.860Z,29.67
2023-03-01T11:07:07.997Z,28.93
2023-03-01T11:09:44.652Z,27.70
2023-03-01T11:12:24.334Z,28.07
2023-03-01T11:15:02.018Z,28.73
2023-03-01T11:17:53.524Z,29.13
2023-03-01T11:20:43.954Z,26.57
2023-03-01T11:23:24.051Z,26.97
2023-03-01T11:26:05.382Z,26.73
2023-03-01T11:28:46.465Z,27.70
2023-03-01T11:31:25.620Z,28.43
2023-03-01T11:34:06.373Z,27.67
2023-03-01T11:36:56.443Z,28.40
2023-03-01T11:39:39.525Z,29.80
2023-03-01T11:42:27.840Z,28.67
2023-03-01T11:45:34.362Z,28.80
2023-03-01T11:48:48.830Z,28.20
2023-03-01T11:51:40.338Z,28.37
2023-03-01T11:54:31.270Z,28.17
2023-03-01T11:57:13.522Z,29.60
2023-03-01T12:00:13.836Z,29.13
2023-03-01T12:03:30.790Z,28.67
2023-03-01T12:06:34.292Z,28.87
2023-03-01T12:09:37.750Z,28.60
2023-03-01T12:13:01.766Z,28.30
2023-03-01T12:16:36.053Z,28.57
2023-03-01T12:19:40.363Z,28.63
2023-03-01T12:22:35.458Z,27.37
2023-03-01T12:25:36.245Z,27.60
2023-03-01T12:28:42.853Z,27.53
2023-03-01T12:31:57.051Z,26.87
2023-03-01T12:35:06.254Z,26.40
2023-03-01T12:37:55.632Z,25.97
2023-03-01T12:40:48.999Z,25.30
2023-03-01T12:43:47.981Z,24.80
2023-03-01T12:46:51.067Z,24.73
2023-03-01T12:49:35.973Z,25.37
2023-03-01T12:52:27.813Z,24.90
2023-03-01T12:55:07.736Z,24.97
2023-03-01T12:57:52.095Z,25.00
2023-03-01T13:00:41.130Z,24.17
2023-03-01T13:03:36.518Z,24.83
2023-03-01T13:06:19.035Z,25.97
2023-03-01T13:09:03.140Z,25.13
2023-03-01T13:11:43.556Z,26.27
2023-03-01T13:15:03.489Z,25.53
2023-03-01T13:17:51.398Z,25.37
2023-03-01T13:20:32.151Z,25.20
2023-03-01T13:23:16.896Z,25.00
2023-03-01T13:26:21.348Z,25.73
2023-03-01T13:29:04.442Z,25.73
2023-03-01T13:32:07.368Z,26.30
2023-03-01T13:35:13.766Z,25.93
2023-03-01T13:37:51.186Z,25.87
2023-03-01T13:41:02.834Z,25.90
2023-03-01T13:43:46.911Z,25.73
2023-03-01T13:46:33.480Z,26.13
2023-03-01T13:49:21.033Z,24.93
2023-03-01T13:52:02.552Z,25.10
2023-03-01T13:54:50.192Z,26.60
2023-03-01T13:57:44.709Z,24.60
2023-03-01T14:00:41.589Z,25.37
2023-03-01T14:03:26.676Z,25.77
2023-03-01T14:06:21.356Z,25.63
2023-03-01T14:09:11.393Z,25.87
2023-03-01T14:12:19.370Z,25.47
2023-03-01T14:15:09.392Z,25.20
2023-03-01T14:18:15.995Z,26.93
2023-03-01T14:20:56.548Z,26.27
2023-03-01T14:23:38.917Z,26.90
2023-03-01T14:26:29.326Z,25.87
2023-03-01T14:29:12.019Z,25.63
2023-03-01T14:31:53.273Z,26.03
2023-03-01T14:34:44.209Z,26.33
2023-03-01T14:37:43.444Z,25.90
2023-03-01T14:40:42.655Z,26.43
2023-03-01T14:43:31.266Z,24.63
2023-03-01T14:46:21.384Z,24.43
2023-03-01T14:48:59.969Z,23.73
2023-03-01T14:51:39.033Z,24.37
2023-03-01T14:54:36.523Z,23.37
2023-03-01T14:57:24.102Z,22.43
2023-03-01T15:00:26.084Z,23.57
2023-03-01T15:03:12.759Z,23.27
2023-03-01T15:05:50.445Z,21.80
2023-03-01T15:08:35.358Z,22.13
2023-03-01T15:11:38.417Z,22.70
2023-03-01T15:15:03.214Z,21.73
2023-03-01T15:17:51.293Z,23.07
2023-03-01T15:20:32.051Z,21.23
2023-03-01T15:23:15.556Z,21.90
2023-03-01T15:25:58.748Z,22.47
2023-03-01T15:28:47.995Z,21.60
2023-03-01T15:31:30.133Z,21.70
2023-03-01T15:34:40.220Z,20.50
2023-03-01T15:37:53.779Z,21.10
2023-03-01T15:40:46.518Z,21.80
2023-03-01T15:43:52.380Z,22.13
2023-03-01T15:46:33.541Z,22.60
2023-03-01T15:49:54.394Z,23.17
2023-03-01T15:52:37.878Z,23.10
2023-03-01T15:55:25.845Z,22.73
2023-03-01T15:58:10.246Z,22.00
2023-03-01T16:00:59.783Z,23.50
2023-03-01T16:03:40.617Z,24.27
2023-03-01T16:06:20.424Z,24.00
2023-03-01T16:09:01.546Z,23.27
2023-03-01T16:11:39.374Z,23.10
2023-03-01T16:14:17.034Z,23.00
2023-03-01T16:16:57.548Z,23.30
2023-03-01T16:19:33.748Z,22.57
2023-03-01T16:22:15.958Z,23.23
2023-03-01T16:25:05.135Z,23.00
2023-03-01T16:27:42.980Z,22.67
2023-03-01T16:30:20.890Z,22.60
2023-03-01T16:33:01.584Z,23.47
2023-03-01T16:35:47.566Z,23.03
2023-03-01T16:38:29.413Z,23.03
2023-03-01T16:41:08.624Z,23.30
2023-03-01T16:43:46.618Z,23.67
2023-03-01T16:46:26.176Z,22.53
2023-03-01T16:49:03.122Z,23.53
2023-03-01T16:51:47.670Z,22.87
2023-03-01T16:54:26.736Z,22.80
2023-03-01T16:57:06.050Z,23.57
2023-03-01T16:59:43.150Z,23.30
2023-03-01T17:02:22.479Z,23.67
2023-03-01T17:05:01.291Z,22.33
2023-03-01T17:07:39.779Z,23.30
2023-03-01T17:10:17.095Z,22.93
2023-03-01T17:12:57.026Z,23.83
2023-03-01T17:15:38.732Z,23.23
2023-03-01T17:18:14.833Z,22.67
2023-03-01T17:20:50.607Z,24.23
2023-03-01T17:23:26.850Z,22.90
2023-03-01T17:26:03.958Z,22.50
2023-03-01T17:28:43.982Z,22.43
2023-03-01T17:31:20.171Z,22.03
2023-03-01T17:34:01.197Z,21.80
2023-03-01T17:36:43.100Z,22.20
2023-03-01T17:39:19.703Z,22.27
2023-03-01T17:41:56.345Z,23.57
2023-03-01T17:44:34.871Z,22.70
2023-03-01T17:47:11.367Z,23.17
2023-03-01T17:49:47.598Z,22.93
2023-03-01T17:52:25.415Z,22.90
2023-03-01T17:55:05.233Z,23.67
2023-03-01T17:57:43.977Z,22.97
2023-03-01T18:00:26.194Z,23.53
2023-03-01T18:03:02.420Z,22.33
2023-03-01T18:05:40.639Z,24.13
2023-03-01T18:08:16.533Z,23.30
2023-03-01T18:10:52.180Z,25.10
2023-03-01T18:13:27.684Z,25.07
2023-03-01T18:16:08.947Z,23.50
2023-03-01T18:18:46.579Z,23.50
2023-03-01T18:21:22.914Z,23.63
2023-03-01T18:23:59.006Z,23.57
2023-03-01T18:26:35.529Z,24.87
2023-03-01T18:29:13.759Z,23.60
2023-03-01T18:31:52.004Z,24.57
2023-03-01T18:34:27.718Z,22.83
2023-03-01T18:37:11.608Z,24.13
2023-03-01T18:39:47.292Z,23.77
2023-03-01T18:42:23.682Z,24.43
2023-03-01T18:44:59.209Z,23.80
2023-03-01T18:47:37.259Z,22.80
2023-03-01T18:50:14.328Z,23.03
2023-03-01T18:52:49.997Z,23.87
2023-03-01T18:55:25.265Z,23.27
2023-03-01T18:58:02.028Z,23.93
2023-03-01T19:00:37.881Z,24.07
2023-03-01T19:03:16.490Z,24.00
2023-03-01T19:05:52.528Z,23.10
2023-03-01T19:08:28.082Z,23.00
2023-03-01T19:11:05.090Z,22.40
2023-03-01T19:13:41.808Z,23.93
2023-03-01T19:16:21.498Z,24.10
2023-03-01T19:19:25.678Z,23.23
2023-03-01T19:22:05.789Z,23.73
2023-03-01T19:24:41.302Z,24.23
2023-03-01T19:27:15.740Z,24.23
2023-03-01T19:29:51.290Z,24.40
2023-03-01T19:32:25.998Z,23.93
2023-03-01T19:35:02.797Z,22.90
2023-03-01T19:37:39.605Z,24.37
2023-03-01T19:40:16.979Z,23.97
2023-03-01T19:42:52.176Z,24.23
2023-03-01T19:45:33.345Z,24.00
2023-03-01T19:48:07.318Z,23.73
2023-03-01T19:50:44.145Z,24.40
2023-03-01T19:53:19.252Z,24.60
2023-03-01T19:55:55.194Z,23.93
2023-03-01T19:58:30.474Z,23.63
2023-03-01T20:01:05.640Z,24.43
2023-03-01T20:03:41.280Z,24.13
2023-03-01T20:06:21.548Z,24.93
2023-03-01T20:08:55.904Z,24.37
2023-03-01T20:11:30.207Z,24.87
2023-03-01T20:14:03.923Z,24.77
2023-03-01T20:16:38.128Z,24.00
2023-03-01T20:19:12.303Z,23.83
2023-03-01T20:21:48.077Z,24.83
2023-03-01T20:24:22.588Z,24.10
2023-03-01T20:26:57.096Z,24.63
2023-03-01T20:29:32.210Z,23.43
2023-03-01T20:32:07.787Z,24.73
2023-03-01T20:34:42.489Z,23.63
2023-03-01T20:37:19.390Z,23.60
2023-03-01T20:39:53.679Z,23.13
2023-03-01T20:42:28.572Z,23.83
2023-03-01T20:45:02.638Z,22.90
2023-03-01T20:47:36.658Z,22.57
2023-03-01T20:50:10.672Z,24.43
2023-03-01T20:52:47.974Z,23.30
2023-03-01T20:55:22.317Z,24.43
2023-03-01T20:57:57.063Z,24.03
2023-03-01T21:00:30.930Z,23.37
2023-03-01T21:03:05.194Z,23.90
2023-03-01T21:05:39.104Z,24.20
2023-03-01T21:08:15.408Z,24.30
2023-03-01T21:10:56.052Z,23.07
2023-03-01T21:13:31.225Z,23.67
2023-03-01T21:16:06.466Z,23.70
2023-03-01T21:18:41.878Z,23.37
2023-03-01T21:21:17.579Z,23.43
2023-03-01T21:23:53.298Z,23.70
2023-03-01T21:26:28.965Z,23.73
2023-03-01T21:29:04.886Z,24.07
2023-03-01T21:31:39.999Z,22.50
2023-03-01T21:34:16.785Z,23.90
2023-03-01T21:36:51.122Z,24.57
2023-03-01T21:39:30.760Z,25.33
2023-03-01T21:42:05.473Z,24.37
2023-03-01T21:44:39.660Z,24.80
2023-03-01T21:47:14.374Z,24.60
2023-03-01T21:49:49.274Z,26.63
2023-03-01T21:52:23.582Z,25.17
2023-03-01T21:55:03.414Z,26.33
2023-03-01T21:57:39.768Z,25.83
2023-03-01T22:00:18.382Z,25.23
2023-03-01T22:02:53.726Z,25.40
2023-03-01T22:05:29.105Z,25.47
2023-03-01T22:08:03.944Z,24.70
2023-03-01T22:10:45.691Z,25.67
2023-03-01T22:13:21.883Z,27.03
2023-03-01T22:15:57.444Z,26.23
2023-03-01T22:18:31.572Z,26.37
2023-03-01T22:21:10.591Z,30.97
2023-03-01T22:23:45.943Z,27.00
2023-03-01T22:26:30.744Z,26.67
2023-03-01T22:29:08.996Z,26.17
2023-03-01T22:31:44.348Z,26.37
2023-03-01T22:34:19.366Z,27.37
2023-03-01T22:36:54.964Z,28.07
2023-03-01T22:39:30.429Z,28.13
2023-03-01T22:42:07.873Z,27.27
2023-03-01T22:44:43.464Z,27.10
2023-03-01T22:47:18.937Z,27.17
2023-03-01T22:49:54.427Z,28.40
2023-03-01T22:52:29.784Z,27.87
2023-03-01T22:55:05.589Z,27.90
2023-03-01T22:57:44.334Z,27.73
2023-03-01T23:00:21.295Z,28.07
2023-03-01T23:02:57.755Z,28.17
2023-03-01T23:05:33.693Z,28.03
2023-03-01T23:08:09.785Z,28.43
2023-03-01T23:10:47.035Z,30.07
2023-03-01T23:13:24.805Z,29.43
2023-03-01T23:16:02.244Z,29.37
2023-03-01T23:18:38.138Z,29.33
2023-03-01T23:21:19.120Z,29.33
2023-03-01T23:23:54.960Z,29.53
2023-03-01T23:26:33.201Z,30.37
2023-03-01T23:29:11.595Z,29.10
2023-03-01T23:31:47.774Z,29.93
2023-03-01T23:34:25.251Z,30.30
2023-03-01T23:37:01.450Z,30.87
2023-03-01T23:39:37.170Z,30.70
2023-03-01T23:42:13.010Z,29.97
2023-03-01T23:44:55.123Z,31.03
2023-03-01T23:47:30.500Z,30.87
2023-03-01T23:50:06.812Z,30.47
2023-03-01T23:52:45.481Z,31.27
2023-03-01T23:55:24.441Z,31.53
2023-03-01T23:58:00.617Z,30.87
